Terminal Aerodrome Forecast
Issued by NWS

Home | Current Version | Previous Version | Text Only | Print | Product List | Glossary On
Versions: 1 2 3 4 5 6 7 8 9 10 11 12 13 14 15 16 17 18 19 20
000
FTUS41 KPBZ 211700
TAFZZV
TAF
KZZV 211730Z 2118/2218 33008KT P6SM SCT015 BKN025
      TEMPO 2119/2121 5SM -SHRA BKN010
     FM212200 31008KT P6SM VCSH BKN020
     FM220600 32005KT 5SM BR VCSH BKN008
     FM221200 33008KT P6SM BKN015 OVC025
     FM221500 33009KT P6SM BKN025=

USA.gov is the U.S. government's official web portal to all federal, state and local government web resources and services.